Port Angeles, WA

7:56 AM PST on December 06, 2016 (GMT -0800)
Fairchild International | | Change Station
Active Advisory: Winter Storm Warning

Elev 289 ft 48.12 °N, 123.50 °W | Updated 3 minutes ago

Scattered Clouds
Scattered Clouds
31 °F
Feels Like 24 °F
N
7
Wind Variable Wind from SSE

Today
High -- | Low -- °F
--% Chance of Precip.
Yesterday
High -- | Low -- °F
Precip. -- in
Pressure 30.17 in
Visibility 10.0 miles
Clouds Scattered Clouds 4900 ft
Windchill 24 °F
Dew Point 25 °F
Humidity 79%
Rainfall 0.30 in
Snow Depth Not available.
7:49 AM 4:20 PM
Waxing Crescent, 43% visible
METAR KCLM 061553Z AUTO 15006KT 10SM SCT049 M01/M04 A3016 RMK AO2 SLP217 T10061039
Pressure 30.17 in
Visibility 10.0 miles
Clouds Scattered Clouds 4900 ft
Windchill 24 °F
Dew Point 25 °F
Humidity 79%
Rainfall 0.30 in
Snow Depth Not available.
7:49 AM 4:20 PM
Waxing Crescent, 43% visible
METAR KCLM 061553Z AUTO 15006KT 10SM SCT049 M01/M04 A3016 RMK AO2 SLP217 T10061039

10-Day Weather Forecast

Almanac

Astronomy

Dec. 06, 2016 Rise Set
Actual Time
Civil Twilight
Nautical Twilight
Astronomical Twilight
Moon
Length of Visible Light
Length of Day
Tomorrow will be .
, % of the Moon is Illuminated

Today's Extremes

State Highs State Lows

Community

WunderPhotos

Upload Photos

1,955,959 photos uploaded!

WunderBlog® & News

Nearby

Air Quality

  Air Quality AQ Index Pollutant
Not available.

Snow Depth

Station Depth Elevation

Earthquake Activity

City Distance Mag. Time & Date
Minimum magnitude displayed is 2.5.

Coastal Water Temperatures

Place Temperature

Stations

Nearby Weather Stations

Station Location Temp. Windchill Dew Point Humidity Wind Precip. Elev Updated Type
                   

Watches & Warnings

Winter Storm Warning
Issued: 4:14 AM PST Dec. 6, 2016 – National Weather Service

... Winter Storm Warning remains in effect until 9 am PST this
morning...

* timing... snow showers will continue this morning.

* Snow amounts... up to 2 additional inches of snow is expected in
the warning area this morning along the Highway 101 corridor as
activity slowly tapers off through the morning.

* Main impact... snow and ice on some roadways and bridges may cause
slippery driving conditions.

Precautionary/preparedness actions...

A Winter Storm Warning for heavy snow means severe winter weather
conditions are expected or occurring. Significant amounts of snow
are forecast that will make travel dangerous. Only travel in an
emergency. If you must travel... keep an extra flashlight... food...
and water N your vehicle in case of an emergency.